sensor_id;sensor_type;location;lat;lon;timestamp;pressure;altitude;pressure_sealevel;temperature
78917;BMP280;68315;48.608;11.436;2024-03-08T00:01:39;97212.66;;;0.05
78917;BMP280;68315;48.608;11.436;2024-03-08T00:04:04;97206.50;;;0.05
78917;BMP280;68315;48.608;11.436;2024-03-08T00:06:31;97206.03;;;0.06
78917;BMP280;68315;48.608;11.436;2024-03-08T00:08:56;97204.38;;;0.09
78917;BMP280;68315;48.608;11.436;2024-03-08T00:11:21;97205.28;;;0.15
78917;BMP280;68315;48.608;11.436;2024-03-08T00:13:47;97200.47;;;0.19
78917;BMP280;68315;48.608;11.436;2024-03-08T00:16:15;97197.63;;;0.22
78917;BMP280;68315;48.608;11.436;2024-03-08T00:18:40;97194.00;;;0.25
78917;BMP280;68315;48.608;11.436;2024-03-08T00:21:06;97188.91;;;0.27
78917;BMP280;68315;48.608;11.436;2024-03-08T00:23:31;97189.94;;;0.30
78917;BMP280;68315;48.608;11.436;2024-03-08T00:25:58;97190.94;;;0.32
78917;BMP280;68315;48.608;11.436;2024-03-08T00:28:23;97184.63;;;0.35
78917;BMP280;68315;48.608;11.436;2024-03-08T00:30:50;97192.09;;;0.40
78917;BMP280;68315;48.608;11.436;2024-03-08T00:33:15;97185.03;;;0.43
78917;BMP280;68315;48.608;11.436;2024-03-08T00:35:40;97186.06;;;0.45
78917;BMP280;68315;48.608;11.436;2024-03-08T00:38:05;97179.59;;;0.52
78917;BMP280;68315;48.608;11.436;2024-03-08T00:40:30;97188.13;;;0.59
78917;BMP280;68315;48.608;11.436;2024-03-08T00:42:56;97177.91;;;0.64
78917;BMP280;68315;48.608;11.436;2024-03-08T00:45:21;97178.66;;;0.64
78917;BMP280;68315;48.608;11.436;2024-03-08T00:47:48;97176.97;;;0.67
78917;BMP280;68315;48.608;11.436;2024-03-08T00:50:13;97170.19;;;0.71
78917;BMP280;68315;48.608;11.436;2024-03-08T00:52:39;97176.19;;;0.75
78917;BMP280;68315;48.608;11.436;2024-03-08T00:55:04;97169.59;;;0.76
78917;BMP280;68315;48.608;11.436;2024-03-08T00:57:30;97162.94;;;0.77
78917;BMP280;68315;48.608;11.436;2024-03-08T00:59:55;97168.34;;;0.77
78917;BMP280;68315;48.608;11.436;2024-03-08T01:02:21;97161.63;;;0.73
78917;BMP280;68315;48.608;11.436;2024-03-08T01:04:48;97161.03;;;0.69
78917;BMP280;68315;48.608;11.436;2024-03-08T01:07:13;97156.28;;;0.64
78917;BMP280;68315;48.608;11.436;2024-03-08T01:09:38;97147.13;;;0.61
78917;BMP280;68315;48.608;11.436;2024-03-08T01:12:04;97141.31;;;0.53
78917;BMP280;68315;48.608;11.436;2024-03-08T01:14:30;97146.28;;;0.46
78917;BMP280;68315;48.608;11.436;2024-03-08T01:16:56;97143.53;;;0.31
78917;BMP280;68315;48.608;11.436;2024-03-08T01:19:23;97151.38;;;0.20
78917;BMP280;68315;48.608;11.436;2024-03-08T01:21:49;97144.81;;;0.12
78917;BMP280;68315;48.608;11.436;2024-03-08T01:24:14;97149.03;;;0.04
78917;BMP280;68315;48.608;11.436;2024-03-08T01:26:39;97144.13;;;-0.07
78917;BMP280;68315;48.608;11.436;2024-03-08T01:29:05;97136.81;;;-0.15
78917;BMP280;68315;48.608;11.436;2024-03-08T01:31:30;97133.06;;;-0.18
78917;BMP280;68315;48.608;11.436;2024-03-08T01:33:57;97122.88;;;-0.23
78917;BMP280;68315;48.608;11.436;2024-03-08T01:36:22;97125.28;;;-0.25
78917;BMP280;68315;48.608;11.436;2024-03-08T01:38:48;97120.78;;;-0.28
78917;BMP280;68315;48.608;11.436;2024-03-08T01:41:13;97117.78;;;-0.30
78917;BMP280;68315;48.608;11.436;2024-03-08T01:43:39;97119.41;;;-0.32
78917;BMP280;68315;48.608;11.436;2024-03-08T01:46:05;97108.78;;;-0.36
78917;BMP280;68315;48.608;11.436;2024-03-08T01:48:30;97108.78;;;-0.36
78917;BMP280;68315;48.608;11.436;2024-03-08T01:50:57;97104.88;;;-0.35
78917;BMP280;68315;48.608;11.436;2024-03-08T01:53:24;97108.19;;;-0.31
78917;BMP280;68315;48.608;11.436;2024-03-08T01:55:49;97105.47;;;-0.31
78917;BMP280;68315;48.608;11.436;2024-03-08T01:58:15;97100.09;;;-0.31
78917;BMP280;68315;48.608;11.436;2024-03-08T02:00:43;97099.66;;;-0.29
78917;BMP280;68315;48.608;11.436;2024-03-08T02:03:09;97100.22;;;-0.25
78917;BMP280;68315;48.608;11.436;2024-03-08T02:05:36;97099.91;;;-0.18
78917;BMP280;68315;48.608;11.436;2024-03-08T02:08:01;97098.09;;;-0.12
78917;BMP280;68315;48.608;11.436;2024-03-08T02:10:28;97077.66;;;-0.04
78917;BMP280;68315;48.608;11.436;2024-03-08T02:12:53;97078.53;;;0.02
78917;BMP280;68315;48.608;11.436;2024-03-08T02:15:18;97075.22;;;0.07
78917;BMP280;68315;48.608;11.436;2024-03-08T02:17:44;97069.78;;;0.16
78917;BMP280;68315;48.608;11.436;2024-03-08T02:20:10;97070.19;;;0.24
78917;BMP280;68315;48.608;11.436;2024-03-08T02:22:38;97065.19;;;0.31
78917;BMP280;68315;48.608;11.436;2024-03-08T02:25:04;97065.84;;;0.41
78917;BMP280;68315;48.608;11.436;2024-03-08T02:27:30;97060.56;;;0.46
78917;BMP280;68315;48.608;11.436;2024-03-08T02:29:57;97063.22;;;0.55
78917;BMP280;68315;48.608;11.436;2024-03-08T02:32:25;97055.22;;;0.61
78917;BMP280;68315;48.608;11.436;2024-03-08T02:34:51;97054.28;;;0.64
78917;BMP280;68315;48.608;11.436;2024-03-08T02:37:20;97054.56;;;0.66
78917;BMP280;68315;48.608;11.436;2024-03-08T02:39:46;97051.88;;;0.66
78917;BMP280;68315;48.608;11.436;2024-03-08T02:42:11;97061.28;;;0.71
78917;BMP280;68315;48.608;11.436;2024-03-08T02:44:38;97055.72;;;0.74
78917;BMP280;68315;48.608;11.436;2024-03-08T02:47:07;97055.28;;;0.76
78917;BMP280;68315;48.608;11.436;2024-03-08T02:49:32;97058.25;;;0.78
78917;BMP280;68315;48.608;11.436;2024-03-08T02:51:57;97043.81;;;0.81
78917;BMP280;68315;48.608;11.436;2024-03-08T02:54:23;97052.31;;;0.88
78917;BMP280;68315;48.608;11.436;2024-03-08T02:56:49;97044.50;;;0.90
78917;BMP280;68315;48.608;11.436;2024-03-08T02:59:16;97048.94;;;0.93
78917;BMP280;68315;48.608;11.436;2024-03-08T03:01:42;97040.66;;;0.97
78917;BMP280;68315;48.608;11.436;2024-03-08T03:04:08;97043.38;;;0.97
78917;BMP280;68315;48.608;11.436;2024-03-08T03:06:33;97035.53;;;0.99
78917;BMP280;68315;48.608;11.436;2024-03-08T03:08:58;97042.00;;;1.01
78917;BMP280;68315;48.608;11.436;2024-03-08T03:11:24;97034.34;;;1.00
78917;BMP280;68315;48.608;11.436;2024-03-08T03:13:49;97032.81;;;0.99
78917;BMP280;68315;48.608;11.436;2024-03-08T03:16:18;97034.81;;;0.98
78917;BMP280;68315;48.608;11.436;2024-03-08T03:18:46;97027.88;;;0.97
78917;BMP280;68315;48.608;11.436;2024-03-08T03:21:12;97027.88;;;0.97
78917;BMP280;68315;48.608;11.436;2024-03-08T03:23:39;97024.00;;;0.98
78917;BMP280;68315;48.608;11.436;2024-03-08T03:26:05;97025.47;;;0.99
78917;BMP280;68315;48.608;11.436;2024-03-08T03:28:32;97023.06;;;1.01
78917;BMP280;68315;48.608;11.436;2024-03-08T03:30:58;97025.28;;;1.03
78917;BMP280;68315;48.608;11.436;2024-03-08T03:33:24;97015.50;;;1.05
78917;BMP280;68315;48.608;11.436;2024-03-08T03:35:49;97012.78;;;1.05
78917;BMP280;68315;48.608;11.436;2024-03-08T03:38:17;97018.19;;;1.05
78917;BMP280;68315;48.608;11.436;2024-03-08T03:40:42;97024.63;;;1.08
78917;BMP280;68315;48.608;11.436;2024-03-08T03:43:07;97019.22;;;1.08
78917;BMP280;68315;48.608;11.436;2024-03-08T03:45:34;97017.28;;;1.08
78917;BMP280;68315;48.608;11.436;2024-03-08T03:48:02;97016.53;;;1.08
78917;BMP280;68315;48.608;11.436;2024-03-08T03:50:27;97013.53;;;1.06
78917;BMP280;68315;48.608;11.436;2024-03-08T03:52:52;97021.06;;;1.02
78917;BMP280;68315;48.608;11.436;2024-03-08T03:55:18;97016.16;;;1.00
78917;BMP280;68315;48.608;11.436;2024-03-08T03:57:44;97014.19;;;1.01
78917;BMP280;68315;48.608;11.436;2024-03-08T04:00:11;97012.03;;;1.05
78917;BMP280;68315;48.608;11.436;2024-03-08T04:02:37;97012.13;;;1.10
78917;BMP280;68315;48.608;11.436;2024-03-08T04:05:06;97009.72;;;1.12
78917;BMP280;68315;48.608;11.436;2024-03-08T04:07:32;97017.63;;;1.16
78917;BMP280;68315;48.608;11.436;2024-03-08T04:09:57;97020.44;;;1.22
78917;BMP280;68315;48.608;11.436;2024-03-08T04:12:22;97017.09;;;1.27
78917;BMP280;68315;48.608;11.436;2024-03-08T04:14:48;97014.66;;;1.29
78917;BMP280;68315;48.608;11.436;2024-03-08T04:17:13;97013.53;;;1.35
78917;BMP280;68315;48.608;11.436;2024-03-08T04:19:39;97015.75;;;1.37
78917;BMP280;68315;48.608;11.436;2024-03-08T04:22:05;97011.09;;;1.37
78917;BMP280;68315;48.608;11.436;2024-03-08T04:24:30;97008.84;;;1.36
78917;BMP280;68315;48.608;11.436;2024-03-08T04:26:56;97008.84;;;1.36
78917;BMP280;68315;48.608;11.436;2024-03-08T04:29:21;97012.31;;;1.36
78917;BMP280;68315;48.608;11.436;2024-03-08T04:31:47;97002.72;;;1.35
78917;BMP280;68315;48.608;11.436;2024-03-08T04:34:12;97004.66;;;1.35
78917;BMP280;68315;48.608;11.436;2024-03-08T04:36:38;97005.41;;;1.35
78917;BMP280;68315;48.608;11.436;2024-03-08T04:39:03;97002.72;;;1.35
78917;BMP280;68315;48.608;11.436;2024-03-08T04:41:28;96992.59;;;1.36
78917;BMP280;68315;48.608;11.436;2024-03-08T04:43:55;96992.91;;;1.38
78917;BMP280;68315;48.608;11.436;2024-03-08T04:46:23;96990.19;;;1.38
78917;BMP280;68315;48.608;11.436;2024-03-08T04:48:48;96986.00;;;1.37
78917;BMP280;68315;48.608;11.436;2024-03-08T04:51:13;96988.88;;;1.33
78917;BMP280;68315;48.608;11.436;2024-03-08T04:53:38;96984.72;;;1.32
78917;BMP280;68315;48.608;11.436;2024-03-08T04:56:07;96988.63;;;1.31
78917;BMP280;68315;48.608;11.436;2024-03-08T04:58:35;96980.25;;;1.29
78917;BMP280;68315;48.608;11.436;2024-03-08T05:01:01;96975.00;;;1.26
78917;BMP280;68315;48.608;11.436;2024-03-08T05:03:26;96976.97;;;1.25
78917;BMP280;68315;48.608;11.436;2024-03-08T05:05:52;96983.63;;;1.24
78917;BMP280;68315;48.608;11.436;2024-03-08T05:08:18;96978.94;;;1.25
78917;BMP280;68315;48.608;11.436;2024-03-08T05:10:44;96976.22;;;1.25
78917;BMP280;68315;48.608;11.436;2024-03-08T05:13:09;96975.94;;;1.23
78917;BMP280;68315;48.608;11.436;2024-03-08T05:15:34;96974.75;;;1.24
78917;BMP280;68315;48.608;11.436;2024-03-08T05:18:00;96980.59;;;1.22
78917;BMP280;68315;48.608;11.436;2024-03-08T05:20:25;96978.56;;;1.17
78917;BMP280;68315;48.608;11.436;2024-03-08T05:22:51;96976.44;;;1.21
78917;BMP280;68315;48.608;11.436;2024-03-08T05:25:17;96986.31;;;1.24
78917;BMP280;68315;48.608;11.436;2024-03-08T05:27:42;96983.53;;;1.18
78917;BMP280;68315;48.608;11.436;2024-03-08T05:30:08;96981.75;;;1.15
78917;BMP280;68315;48.608;11.436;2024-03-08T05:32:39;96974.09;;;1.14
78917;BMP280;68315;48.608;11.436;2024-03-08T05:35:05;96981.19;;;1.11
78917;BMP280;68315;48.608;11.436;2024-03-08T05:37:32;96974.75;;;1.09
78917;BMP280;68315;48.608;11.436;2024-03-08T05:39:57;96981.34;;;1.08
78917;BMP280;68315;48.608;11.436;2024-03-08T05:42:23;96970.25;;;1.06
78917;BMP280;68315;48.608;11.436;2024-03-08T05:44:48;96969.69;;;1.02
78917;BMP280;68315;48.608;11.436;2024-03-08T05:47:14;96964.47;;;0.98
78917;BMP280;68315;48.608;11.436;2024-03-08T05:49:41;96958.50;;;0.94
78917;BMP280;68315;48.608;11.436;2024-03-08T05:52:07;96960.19;;;0.92
78917;BMP280;68315;48.608;11.436;2024-03-08T05:54:32;96955.25;;;0.90
78917;BMP280;68315;48.608;11.436;2024-03-08T05:56:58;96961.38;;;0.91
78917;BMP280;68315;48.608;11.436;2024-03-08T05:59:23;96953.28;;;0.91
78917;BMP280;68315;48.608;11.436;2024-03-08T06:01:48;96953.56;;;0.93
78917;BMP280;68315;48.608;11.436;2024-03-08T06:04:14;96957.31;;;0.95
78917;BMP280;68315;48.608;11.436;2024-03-08T06:06:39;96955.34;;;0.96
78917;BMP280;68315;48.608;11.436;2024-03-08T06:09:04;96954.88;;;0.97
78917;BMP280;68315;48.608;11.436;2024-03-08T06:11:40;96964.00;;;1.00
78917;BMP280;68315;48.608;11.436;2024-03-08T06:14:07;96961.88;;;1.04
78917;BMP280;68315;48.608;11.436;2024-03-08T06:16:32;96967.56;;;1.06
78917;BMP280;68315;48.608;11.436;2024-03-08T06:18:58;96966.63;;;1.09
78917;BMP280;68315;48.608;11.436;2024-03-08T06:21:26;96962.72;;;1.10
78917;BMP280;68315;48.608;11.436;2024-03-08T06:23:55;96960.81;;;1.16
78917;BMP280;68315;48.608;11.436;2024-03-08T06:26:21;96958.13;;;1.16
78917;BMP280;68315;48.608;11.436;2024-03-08T06:28:47;96962.31;;;1.17
78917;BMP280;68315;48.608;11.436;2024-03-08T06:31:12;96964.59;;;1.18
78917;BMP280;68315;48.608;11.436;2024-03-08T06:33:38;96958.69;;;1.20
78917;BMP280;68315;48.608;11.436;2024-03-08T06:36:03;96959.25;;;1.24
78917;BMP280;68315;48.608;11.436;2024-03-08T06:38:28;96962.78;;;1.30
78917;BMP280;68315;48.608;11.436;2024-03-08T06:40:55;96957.44;;;1.36
78917;BMP280;68315;48.608;11.436;2024-03-08T06:43:21;96955.38;;;1.45
78917;BMP280;68315;48.608;11.436;2024-03-08T06:45:46;96954.59;;;1.59
78917;BMP280;68315;48.608;11.436;2024-03-08T06:48:19;96948.41;;;1.73
78917;BMP280;68315;48.608;11.436;2024-03-08T06:50:45;96953.75;;;1.88
78917;BMP280;68315;48.608;11.436;2024-03-08T06:53:12;96953.22;;;2.04
78917;BMP280;68315;48.608;11.436;2024-03-08T06:55:37;96951.47;;;2.21
78917;BMP280;68315;48.608;11.436;2024-03-08T06:58:03;96961.19;;;2.33
78917;BMP280;68315;48.608;11.436;2024-03-08T07:00:28;96963.28;;;2.44
78917;BMP280;68315;48.608;11.436;2024-03-08T07:02:55;96946.41;;;2.55
78917;BMP280;68315;48.608;11.436;2024-03-08T07:05:22;96949.44;;;2.62
78917;BMP280;68315;48.608;11.436;2024-03-08T07:07:49;96945.06;;;2.70
78917;BMP280;68315;48.608;11.436;2024-03-08T07:10:16;96944.38;;;2.75
78917;BMP280;68315;48.608;11.436;2024-03-08T07:12:41;96949.84;;;2.81
78917;BMP280;68315;48.608;11.436;2024-03-08T07:15:07;96949.22;;;2.91
78917;BMP280;68315;48.608;11.436;2024-03-08T07:17:33;96950.94;;;2.94
78917;BMP280;68315;48.608;11.436;2024-03-08T07:20:00;96950.19;;;2.94
78917;BMP280;68315;48.608;11.436;2024-03-08T07:22:32;96952.72;;;2.97
78917;BMP280;68315;48.608;11.436;2024-03-08T07:24:57;96946.81;;;2.99
78917;BMP280;68315;48.608;11.436;2024-03-08T07:27:31;96948.81;;;3.04
78917;BMP280;68315;48.608;11.436;2024-03-08T07:29:56;96949.44;;;3.19
78917;BMP280;68315;48.608;11.436;2024-03-08T07:32:23;96950.53;;;3.33
78917;BMP280;68315;48.608;11.436;2024-03-08T07:34:50;96958.75;;;3.44
78917;BMP280;68315;48.608;11.436;2024-03-08T07:37:18;96953.59;;;3.46
78917;BMP280;68315;48.608;11.436;2024-03-08T07:39:45;96956.53;;;3.48
78917;BMP280;68315;48.608;11.436;2024-03-08T07:42:10;96961.75;;;3.51
78917;BMP280;68315;48.608;11.436;2024-03-08T07:44:36;96958.56;;;3.58
78917;BMP280;68315;48.608;11.436;2024-03-08T07:47:02;96956.13;;;3.60
78917;BMP280;68315;48.608;11.436;2024-03-08T07:49:29;96956.88;;;3.61
78917;BMP280;68315;48.608;11.436;2024-03-08T07:51:55;96954.38;;;3.57
78917;BMP280;68315;48.608;11.436;2024-03-08T07:54:20;96949.22;;;3.59
78917;BMP280;68315;48.608;11.436;2024-03-08T07:56:45;96949.78;;;3.75
78917;BMP280;68315;48.608;11.436;2024-03-08T07:59:10;96948.38;;;3.90
78917;BMP280;68315;48.608;11.436;2024-03-08T08:01:37;96945.50;;;4.10
78917;BMP280;68315;48.608;11.436;2024-03-08T08:04:02;96937.41;;;4.38
78917;BMP280;68315;48.608;11.436;2024-03-08T08:06:28;96932.75;;;4.50
78917;BMP280;68315;48.608;11.436;2024-03-08T08:08:56;96932.75;;;4.66
78917;BMP280;68315;48.608;11.436;2024-03-08T08:11:22;96937.22;;;4.86
78917;BMP280;68315;48.608;11.436;2024-03-08T08:13:47;96929.34;;;5.05
78917;BMP280;68315;48.608;11.436;2024-03-08T08:16:12;96922.38;;;5.15
78917;BMP280;68315;48.608;11.436;2024-03-08T08:18:38;96926.09;;;5.23
78917;BMP280;68315;48.608;11.436;2024-03-08T08:21:04;96918.88;;;5.31
78917;BMP280;68315;48.608;11.436;2024-03-08T08:23:31;96916.16;;;5.36
78917;BMP280;68315;48.608;11.436;2024-03-08T08:25:56;96908.44;;;5.46
78917;BMP280;68315;48.608;11.436;2024-03-08T08:28:22;96905.44;;;5.55
78917;BMP280;68315;48.608;11.436;2024-03-08T08:30:47;96906.59;;;5.70
78917;BMP280;68315;48.608;11.436;2024-03-08T08:33:14;96898.34;;;5.93
78917;BMP280;68315;48.608;11.436;2024-03-08T08:35:39;96903.00;;;6.09
78917;BMP280;68315;48.608;11.436;2024-03-08T08:38:05;96892.00;;;6.20
78917;BMP280;68315;48.608;11.436;2024-03-08T08:40:30;96891.69;;;6.34
78917;BMP280;68315;48.608;11.436;2024-03-08T08:42:58;96892.88;;;6.39
78917;BMP280;68315;48.608;11.436;2024-03-08T08:45:23;96901.03;;;6.45
78917;BMP280;68315;48.608;11.436;2024-03-08T08:47:49;96892.22;;;6.57
78917;BMP280;68315;48.608;11.436;2024-03-08T08:50:15;96887.16;;;6.72
78917;BMP280;68315;48.608;11.436;2024-03-08T08:52:41;96892.00;;;6.90
78917;BMP280;68315;48.608;11.436;2024-03-08T08:55:08;96889.53;;;7.11
78917;BMP280;68315;48.608;11.436;2024-03-08T08:57:34;96885.09;;;7.32
78917;BMP280;68315;48.608;11.436;2024-03-08T09:00:00;96877.50;;;7.44
78917;BMP280;68315;48.608;11.436;2024-03-08T09:02:26;96878.63;;;7.54
78917;BMP280;68315;48.608;11.436;2024-03-08T09:04:51;96888.91;;;7.66
78917;BMP280;68315;48.608;11.436;2024-03-08T09:07:17;96876.97;;;7.69
78917;BMP280;68315;48.608;11.436;2024-03-08T09:09:44;96877.53;;;7.81
78917;BMP280;68315;48.608;11.436;2024-03-08T09:12:10;96867.25;;;7.87
78917;BMP280;68315;48.608;11.436;2024-03-08T09:14:41;96864.66;;;7.95
78917;BMP280;68315;48.608;11.436;2024-03-08T09:17:07;96863.25;;;8.07
78917;BMP280;68315;48.608;11.436;2024-03-08T09:19:35;96857.09;;;8.19
78917;BMP280;68315;48.608;11.436;2024-03-08T09:22:01;96862.75;;;8.40
78917;BMP280;68315;48.608;11.436;2024-03-08T09:24:28;96863.22;;;8.57
78917;BMP280;68315;48.608;11.436;2024-03-08T09:26:54;96858.94;;;8.75
78917;BMP280;68315;48.608;11.436;2024-03-08T09:29:20;96850.00;;;8.87
78917;BMP280;68315;48.608;11.436;2024-03-08T09:31:45;96847.81;;;8.99
78917;BMP280;68315;48.608;11.436;2024-03-08T09:34:11;96857.16;;;9.16
78917;BMP280;68315;48.608;11.436;2024-03-08T09:36:36;96843.69;;;9.18
78917;BMP280;68315;48.608;11.436;2024-03-08T09:39:02;96849.38;;;9.20
78917;BMP280;68315;48.608;11.436;2024-03-08T09:41:27;96844.31;;;9.24
78917;BMP280;68315;48.608;11.436;2024-03-08T09:43:53;96836.00;;;9.30
78917;BMP280;68315;48.608;11.436;2024-03-08T09:46:21;96835.66;;;9.47
78917;BMP280;68315;48.608;11.436;2024-03-08T09:48:47;96827.69;;;9.56
78917;BMP280;68315;48.608;11.436;2024-03-08T09:51:12;96827.25;;;9.65
78917;BMP280;68315;48.608;11.436;2024-03-08T09:53:40;96824.19;;;9.69
78917;BMP280;68315;48.608;11.436;2024-03-08T09:56:07;96819.34;;;9.75
78917;BMP280;68315;48.608;11.436;2024-03-08T09:58:33;96813.66;;;9.93
78917;BMP280;68315;48.608;11.436;2024-03-08T10:00:58;96805.94;;;10.12
78917;BMP280;68315;48.608;11.436;2024-03-08T10:03:24;96803.88;;;10.26
78917;BMP280;68315;48.608;11.436;2024-03-08T10:05:51;96809.56;;;10.28
78917;BMP280;68315;48.608;11.436;2024-03-08T10:08:16;96809.03;;;10.30
78917;BMP280;68315;48.608;11.436;2024-03-08T10:10:41;96805.75;;;10.31
78917;BMP280;68315;48.608;11.436;2024-03-08T10:13:09;96801.41;;;10.36
78917;BMP280;68315;48.608;11.436;2024-03-08T10:15:38;96804.81;;;10.29
78917;BMP280;68315;48.608;11.436;2024-03-08T10:18:05;96802.63;;;10.27
78917;BMP280;68315;48.608;11.436;2024-03-08T10:20:31;96791.81;;;10.29
78917;BMP280;68315;48.608;11.436;2024-03-08T10:23:00;96801.22;;;10.34
78917;BMP280;68315;48.608;11.436;2024-03-08T10:25:28;96805.34;;;10.48
78917;BMP280;68315;48.608;11.436;2024-03-08T10:27:55;96796.94;;;10.53
78917;BMP280;68315;48.608;11.436;2024-03-08T10:30:20;96788.25;;;10.70
78917;BMP280;68315;48.608;11.436;2024-03-08T10:32:47;96797.16;;;10.83
78917;BMP280;68315;48.608;11.436;2024-03-08T10:35:13;96784.91;;;10.92
78917;BMP280;68315;48.608;11.436;2024-03-08T10:37:46;96785.66;;;11.00
78917;BMP280;68315;48.608;11.436;2024-03-08T10:40:21;96778.41;;;11.10
78917;BMP280;68315;48.608;11.436;2024-03-08T10:42:53;96766.47;;;11.08
78917;BMP280;68315;48.608;11.436;2024-03-08T10:47:55;96770.53;;;11.07
78917;BMP280;68315;48.608;11.436;2024-03-08T10:50:25;96770.00;;;11.16
78917;BMP280;68315;48.608;11.436;2024-03-08T10:52:52;96767.44;;;11.25
78917;BMP280;68315;48.608;11.436;2024-03-08T10:55:18;96764.75;;;11.40
78917;BMP280;68315;48.608;11.436;2024-03-08T10:57:45;96760.38;;;11.52
78917;BMP280;68315;48.608;11.436;2024-03-08T11:00:12;96759.88;;;11.69
78917;BMP280;68315;48.608;11.436;2024-03-08T11:02:37;96762.81;;;11.78
78917;BMP280;68315;48.608;11.436;2024-03-08T11:05:03;96769.06;;;11.79
78917;BMP280;68315;48.608;11.436;2024-03-08T11:07:33;96754.03;;;11.88
78917;BMP280;68315;48.608;11.436;2024-03-08T11:10:02;96753.66;;;11.99
78917;BMP280;68315;48.608;11.436;2024-03-08T11:12:36;96747.03;;;12.24
78917;BMP280;68315;48.608;11.436;2024-03-08T11:15:09;96749.59;;;12.37
78917;BMP280;68315;48.608;11.436;2024-03-08T11:20:09;96730.44;;;12.62
78917;BMP280;68315;48.608;11.436;2024-03-08T11:22:41;96724.16;;;12.69
78917;BMP280;68315;48.608;11.436;2024-03-08T11:25:08;96725.97;;;12.74
78917;BMP280;68315;48.608;11.436;2024-03-08T11:27:35;96718.06;;;12.78
78917;BMP280;68315;48.608;11.436;2024-03-08T11:30:06;96710.25;;;12.92
78917;BMP280;68315;48.608;11.436;2024-03-08T11:32:44;96707.16;;;12.95
78917;BMP280;68315;48.608;11.436;2024-03-08T11:35:18;96711.66;;;13.08
78917;BMP280;68315;48.608;11.436;2024-03-08T11:37:44;96699.28;;;13.24
78917;BMP280;68315;48.608;11.436;2024-03-08T11:40:12;96694.72;;;13.43
78917;BMP280;68315;48.608;11.436;2024-03-08T11:42:44;96702.09;;;13.66
78917;BMP280;68315;48.608;11.436;2024-03-08T11:45:09;96695.75;;;13.80
78917;BMP280;68315;48.608;11.436;2024-03-08T11:47:36;96693.28;;;13.84
78917;BMP280;68315;48.608;11.436;2024-03-08T11:50:06;96691.88;;;13.76
78917;BMP280;68315;48.608;11.436;2024-03-08T11:52:35;96683.53;;;13.66
78917;BMP280;68315;48.608;11.436;2024-03-08T11:55:01;96686.81;;;13.65
78917;BMP280;68315;48.608;11.436;2024-03-08T11:57:26;96696.75;;;13.68
78917;BMP280;68315;48.608;11.436;2024-03-08T11:59:54;96682.78;;;13.66
78917;BMP280;68315;48.608;11.436;2024-03-08T12:02:21;96675.47;;;13.61
78917;BMP280;68315;48.608;11.436;2024-03-08T12:04:47;96669.94;;;13.61
78917;BMP280;68315;48.608;11.436;2024-03-08T12:07:12;96663.75;;;13.70
78917;BMP280;68315;48.608;11.436;2024-03-08T12:09:40;96659.41;;;13.84
78917;BMP280;68315;48.608;11.436;2024-03-08T12:12:06;96648.88;;;13.90
78917;BMP280;68315;48.608;11.436;2024-03-08T12:14:33;96649.19;;;13.94
78917;BMP280;68315;48.608;11.436;2024-03-08T12:16:58;96641.81;;;13.96
78917;BMP280;68315;48.608;11.436;2024-03-08T12:19:26;96635.63;;;14.05
78917;BMP280;68315;48.608;11.436;2024-03-08T12:21:51;96642.22;;;14.10
78917;BMP280;68315;48.608;11.436;2024-03-08T12:24:17;96639.13;;;14.23
78917;BMP280;68315;48.608;11.436;2024-03-08T12:26:47;96640.06;;;14.35
78917;BMP280;68315;48.608;11.436;2024-03-08T12:29:24;96635.72;;;14.32
78917;BMP280;68315;48.608;11.436;2024-03-08T12:31:54;96635.91;;;14.34
78917;BMP280;68315;48.608;11.436;2024-03-08T12:34:19;96625.13;;;14.38
78917;BMP280;68315;48.608;11.436;2024-03-08T12:36:48;96630.50;;;14.36
78917;BMP280;68315;48.608;11.436;2024-03-08T12:39:18;96620.59;;;14.33
78917;BMP280;68315;48.608;11.436;2024-03-08T12:41:55;96620.19;;;14.36
78917;BMP280;68315;48.608;11.436;2024-03-08T12:44:24;96613.28;;;14.45
78917;BMP280;68315;48.608;11.436;2024-03-08T12:46:51;96613.66;;;14.59
78917;BMP280;68315;48.608;11.436;2024-03-08T12:49:16;96611.75;;;14.61
78917;BMP280;68315;48.608;11.436;2024-03-08T12:51:47;96607.19;;;14.73
78917;BMP280;68315;48.608;11.436;2024-03-08T12:54:13;96604.34;;;14.90
78917;BMP280;68315;48.608;11.436;2024-03-08T12:56:38;96602.69;;;15.04
78917;BMP280;68315;48.608;11.436;2024-03-08T12:59:05;96596.97;;;15.02
78917;BMP280;68315;48.608;11.436;2024-03-08T13:01:31;96589.16;;;14.82
78917;BMP280;68315;48.608;11.436;2024-03-08T13:03:57;96591.78;;;14.80
78917;BMP280;68315;48.608;11.436;2024-03-08T13:06:24;96588.09;;;14.77
78917;BMP280;68315;48.608;11.436;2024-03-08T13:08:50;96590.31;;;14.79
78917;BMP280;68315;48.608;11.436;2024-03-08T13:11:17;96586.81;;;14.78
78917;BMP280;68315;48.608;11.436;2024-03-08T13:13:43;96589.66;;;14.71
78917;BMP280;68315;48.608;11.436;2024-03-08T13:16:09;96586.78;;;14.69
78917;BMP280;68315;48.608;11.436;2024-03-08T13:18:36;96583.59;;;14.72
78917;BMP280;68315;48.608;11.436;2024-03-08T13:21:01;96580.94;;;14.65
78917;BMP280;68315;48.608;11.436;2024-03-08T13:23:33;96587.03;;;14.63
78917;BMP280;68315;48.608;11.436;2024-03-08T13:26:04;96575.19;;;14.53
78917;BMP280;68315;48.608;11.436;2024-03-08T13:28:29;96576.19;;;14.48
78917;BMP280;68315;48.608;11.436;2024-03-08T13:31:01;96562.53;;;14.50
78917;BMP280;68315;48.608;11.436;2024-03-08T13:33:28;96567.47;;;14.52
78917;BMP280;68315;48.608;11.436;2024-03-08T13:35:53;96556.94;;;14.40
78917;BMP280;68315;48.608;11.436;2024-03-08T13:38:18;96563.03;;;14.39
78917;BMP280;68315;48.608;11.436;2024-03-08T13:40:45;96557.25;;;14.44
78917;BMP280;68315;48.608;11.436;2024-03-08T13:43:11;96554.06;;;14.48
78917;BMP280;68315;48.608;11.436;2024-03-08T13:45:38;96543.94;;;14.60
78917;BMP280;68315;48.608;11.436;2024-03-08T13:48:04;96553.00;;;14.70
78917;BMP280;68315;48.608;11.436;2024-03-08T13:50:30;96554.16;;;14.67
78917;BMP280;68315;48.608;11.436;2024-03-08T13:52:55;96540.69;;;14.54
78917;BMP280;68315;48.608;11.436;2024-03-08T13:55:21;96542.00;;;14.53
78917;BMP280;68315;48.608;11.436;2024-03-08T13:57:48;96549.97;;;14.49
78917;BMP280;68315;48.608;11.436;2024-03-08T14:00:14;96539.44;;;14.38
78917;BMP280;68315;48.608;11.436;2024-03-08T14:02:40;96537.97;;;14.37
78917;BMP280;68315;48.608;11.436;2024-03-08T14:05:06;96536.41;;;14.34